createdAt,value
2018-12-04T00:02:30.510Z,318.50
2018-12-04T00:05:02.456Z,309.25
2018-12-04T00:07:34.213Z,304.75
2018-12-04T00:10:07.081Z,300.50
2018-12-04T00:12:39.634Z,307.00
2018-12-04T00:15:11.388Z,309.50
2018-12-04T00:17:47.650Z,301.00
2018-12-04T00:20:20.355Z,301.75
2018-12-04T00:22:52.249Z,273.00
2018-12-04T00:25:24.369Z,282.75
2018-12-04T00:27:57.434Z,279.00
2018-12-04T00:30:29.270Z,286.25
2018-12-04T00:33:01.909Z,293.00
2018-12-04T00:35:34.395Z,283.00
2018-12-04T00:38:07.065Z,279.00
2018-12-04T00:40:45.914Z,299.00
2018-12-04T00:43:17.720Z,297.00
2018-12-04T00:45:50.578Z,270.00
2018-12-04T00:48:22.416Z,270.50
2018-12-04T00:50:59.714Z,293.00
2018-12-04T00:53:40.466Z,281.75
2018-12-04T00:56:12.473Z,297.75
2018-12-04T00:58:47.466Z,296.00
2018-12-04T01:01:19.237Z,301.75
2018-12-04T01:03:52.073Z,290.50
2018-12-04T01:06:24.724Z,283.25
2018-12-04T01:08:56.773Z,283.00
2018-12-04T01:11:29.434Z,290.00
2018-12-04T01:14:03.224Z,300.25
2018-12-04T01:16:36.923Z,292.75
2018-12-04T01:19:13.386Z,291.00
2018-12-04T01:21:45.141Z,305.50
2018-12-04T01:24:16.711Z,312.50
2018-12-04T01:26:59.525Z,309.50
2018-12-04T01:29:34.407Z,309.25
2018-12-04T01:32:09.296Z,312.25
2018-12-04T01:34:43.110Z,301.25
2018-12-04T01:37:15.149Z,310.00
2018-12-04T01:39:46.764Z,279.50
2018-12-04T01:42:18.853Z,270.75
2018-12-04T01:44:50.640Z,282.50
2018-12-04T01:47:23.469Z,290.00
2018-12-04T01:49:56.053Z,284.25
2018-12-04T01:52:27.599Z,277.50
2018-12-04T01:54:59.471Z,278.00
2018-12-04T01:57:31.253Z,272.00
2018-12-04T02:00:03.835Z,278.00
2018-12-04T02:02:39.628Z,270.00
2018-12-04T02:05:11.643Z,280.75
2018-12-04T02:07:43.436Z,284.75
2018-12-04T02:10:17.315Z,254.50
2018-12-04T02:12:51.774Z,288.50
2018-12-04T02:15:23.981Z,283.25
2018-12-04T02:17:55.777Z,293.25
2018-12-04T02:20:27.824Z,298.75
2018-12-04T02:22:59.523Z,279.75
2018-12-04T02:25:31.535Z,301.50
2018-12-04T02:28:04.423Z,301.00
2018-12-04T02:30:36.327Z,295.50
2018-12-04T02:33:08.018Z,279.50
2018-12-04T02:35:39.937Z,299.00
2018-12-04T02:38:11.906Z,302.50
2018-12-04T02:40:43.956Z,328.00
2018-12-04T02:43:16.349Z,334.25
2018-12-04T02:45:48.253Z,336.00
2018-12-04T02:48:20.908Z,366.25
2018-12-04T02:50:52.962Z,362.25
2018-12-04T02:53:24.943Z,391.60
2018-12-04T02:55:56.837Z,390.80
2018-12-04T02:58:28.527Z,386.60
2018-12-04T03:01:00.898Z,391.20
2018-12-04T03:03:32.965Z,394.20
2018-12-04T03:06:04.875Z,411.80
2018-12-04T03:08:36.743Z,389.80
2018-12-04T03:11:08.377Z,399.80
2018-12-04T03:13:41.143Z,403.80
2018-12-04T03:16:13.009Z,412.00
2018-12-04T03:18:44.750Z,433.75
2018-12-04T03:21:16.756Z,439.25
2018-12-04T03:23:49.820Z,429.25
2018-12-04T03:26:21.659Z,440.00
2018-12-04T03:28:53.466Z,456.40
2018-12-04T03:31:25.236Z,448.60
2018-12-04T03:33:56.605Z,445.00
2018-12-04T03:36:29.021Z,468.40
2018-12-04T03:39:00.470Z,463.40
2018-12-04T03:41:32.198Z,470.00
2018-12-04T03:44:04.081Z,480.80
2018-12-04T03:46:36.295Z,471.80
2018-12-04T03:49:08.336Z,486.60
2018-12-04T03:51:40.204Z,489.40
2018-12-04T03:54:11.961Z,488.33
2018-12-04T03:56:43.809Z,514.20
2018-12-04T03:59:15.911Z,516.50
2018-12-04T04:01:48.238Z,481.80
2018-12-04T04:04:20.426Z,467.80
2018-12-04T04:06:52.677Z,462.80
2018-12-04T04:09:24.446Z,462.00
2018-12-04T04:11:58.327Z,448.60
2018-12-04T04:14:31.311Z,450.80
2018-12-04T04:17:03.188Z,462.00
2018-12-04T04:19:35.115Z,454.40
2018-12-04T04:22:07.030Z,457.80
2018-12-04T04:24:39.111Z,460.80
2018-12-04T04:27:10.674Z,436.80
2018-12-04T04:29:42.042Z,437.60
2018-12-04T04:32:14.480Z,466.00
2018-12-04T04:34:46.102Z,445.00
2018-12-04T04:37:17.985Z,432.40
2018-12-04T04:39:49.593Z,459.40
2018-12-04T04:42:21.269Z,434.40
2018-12-04T04:44:53.803Z,438.00
2018-12-04T04:47:25.677Z,450.80
2018-12-04T04:50:08.094Z,439.00
2018-12-04T04:52:39.719Z,435.25
2018-12-04T04:55:11.083Z,454.00
2018-12-04T04:57:43.375Z,429.00
2018-12-04T05:00:15.594Z,435.00
2018-12-04T05:02:48.919Z,422.80
2018-12-04T05:05:21.458Z,423.80
2018-12-04T05:17:13.710Z,339.25
2018-12-04T05:19:45.603Z,356.25
2018-12-04T05:22:17.254Z,340.75
2018-12-04T05:24:48.713Z,307.00
2018-12-04T05:27:27.092Z,282.00
2018-12-04T05:30:02.100Z,251.75
2018-12-04T05:32:33.826Z,286.00
2018-12-04T05:35:05.289Z,276.00
2018-12-04T05:37:36.907Z,235.00
2018-12-04T05:40:08.769Z,215.00
2018-12-04T05:42:40.399Z,227.50
2018-12-04T05:45:11.882Z,242.00
2018-12-04T05:47:43.603Z,243.00
2018-12-04T05:50:15.630Z,224.25
2018-12-04T05:55:36.620Z,253.50
2018-12-04T05:58:08.070Z,256.00
2018-12-04T06:00:39.584Z,259.25
2018-12-04T06:03:11.967Z,259.50
2018-12-04T06:05:43.770Z,189.50
2018-12-04T06:08:15.475Z,209.50
2018-12-04T06:10:46.954Z,215.50
2018-12-04T06:13:18.684Z,208.00
2018-12-04T06:15:50.985Z,215.25
2018-12-04T06:18:23.987Z,219.00
2018-12-04T06:20:58.207Z,211.25
2018-12-04T06:23:29.957Z,227.00
2018-12-04T06:26:01.336Z,327.00
2018-12-04T06:28:32.933Z,206.50
2018-12-04T06:31:04.442Z,210.50
2018-12-04T06:33:38.297Z,168.80
2018-12-04T06:36:10.891Z,175.00
2018-12-04T06:38:45.621Z,167.20
2018-12-04T06:41:18.241Z,155.20
2018-12-04T06:43:49.915Z,163.60
2018-12-04T06:46:21.524Z,152.20
2018-12-04T06:48:53.056Z,145.60
2018-12-04T06:51:25.977Z,139.20
2018-12-04T06:53:57.606Z,143.80
2018-12-04T06:56:29.078Z,135.20
2018-12-04T06:59:00.365Z,136.80
2018-12-04T07:01:32.001Z,135.20
2018-12-04T07:04:03.598Z,139.40
2018-12-04T07:06:35.026Z,127.80
2018-12-04T07:09:09.785Z,145.20
2018-12-04T07:11:43.299Z,144.80
2018-12-04T07:14:15.094Z,135.20
2018-12-04T07:16:46.638Z,124.60
2018-12-04T07:19:18.469Z,132.80
2018-12-04T07:21:50.463Z,149.00
2018-12-04T07:24:22.190Z,197.20
2018-12-04T07:26:54.769Z,194.20
2018-12-04T07:29:26.205Z,141.20
2018-12-04T07:31:57.662Z,126.00
2018-12-04T07:34:29.164Z,131.60
2018-12-04T07:37:01.758Z,139.00
2018-12-04T07:39:33.371Z,158.20
2018-12-04T07:42:05.056Z,137.20
2018-12-04T07:44:47.116Z,124.40
2018-12-04T07:47:19.521Z,115.00
2018-12-04T07:49:52.050Z,128.60
2018-12-04T07:52:26.129Z,114.40
2018-12-04T07:54:57.836Z,129.20
2018-12-04T07:57:35.342Z,123.80
2018-12-04T08:00:08.857Z,112.20
2018-12-04T08:02:41.449Z,109.00
2018-12-04T08:05:16.920Z,114.40
2018-12-04T08:07:48.292Z,126.80
2018-12-04T08:10:21.763Z,116.80
2018-12-04T08:12:53.088Z,136.40
2018-12-04T08:15:24.541Z,128.40
2018-12-04T08:17:57.012Z,126.20
2018-12-04T08:20:30.354Z,103.60
2018-12-04T08:23:02.559Z,105.20
2018-12-04T08:25:34.308Z,115.60
2018-12-04T08:28:05.951Z,101.40
2018-12-04T08:30:37.386Z,97.80
2018-12-04T08:33:08.800Z,85.00
2018-12-04T08:35:40.441Z,95.40
2018-12-04T08:38:12.348Z,98.00
2018-12-04T08:40:45.013Z,126.40
2018-12-04T08:43:16.280Z,109.80
2018-12-04T08:45:47.795Z,112.60
2018-12-04T08:48:19.279Z,90.60
2018-12-04T08:50:51.073Z,92.20
2018-12-04T08:53:23.986Z,86.60
2018-12-04T08:55:56.611Z,90.00
2018-12-04T08:58:28.094Z,82.80
2018-12-04T09:00:59.543Z,97.20
2018-12-04T09:03:30.952Z,94.40
2018-12-04T09:06:02.652Z,89.80
2018-12-04T09:08:34.092Z,111.00
2018-12-04T09:11:09.205Z,111.40
2018-12-04T09:13:41.971Z,114.80
2018-12-04T09:16:13.535Z,103.20
2018-12-04T09:18:45.137Z,107.20
2018-12-04T09:21:17.144Z,116.00
2018-12-04T09:23:50.396Z,109.80
2018-12-04T09:26:22.845Z,106.60
2018-12-04T09:28:54.144Z,112.60
2018-12-04T09:31:25.912Z,151.40
2018-12-04T09:33:58.911Z,106.60
2018-12-04T09:36:31.705Z,121.40
2018-12-04T09:39:03.494Z,111.60
2018-12-04T09:41:37.235Z,101.40
2018-12-04T09:44:08.669Z,114.60
2018-12-04T09:46:40.209Z,106.80
2018-12-04T09:49:11.752Z,103.60
2018-12-04T09:51:43.254Z,109.80
2018-12-04T09:54:15.223Z,110.20
2018-12-04T09:56:48.970Z,102.80
2018-12-04T09:59:20.404Z,115.80
2018-12-04T10:01:52.456Z,107.80
2018-12-04T10:04:27.361Z,103.60
2018-12-04T10:06:59.971Z,101.40
2018-12-04T10:09:31.431Z,104.20
2018-12-04T10:12:03.113Z,84.60
2018-12-04T10:14:34.461Z,109.40
2018-12-04T10:17:07.285Z,116.40
2018-12-04T10:19:39.515Z,104.60
2018-12-04T10:22:11.128Z,115.80
2018-12-04T10:24:43.079Z,119.80
2018-12-04T10:27:15.701Z,103.00
2018-12-04T10:29:47.064Z,117.20
2018-12-04T10:32:18.785Z,112.80
2018-12-04T10:34:50.114Z,109.20
2018-12-04T10:37:22.797Z,110.40
2018-12-04T10:39:54.652Z,109.20
2018-12-04T10:42:26.273Z,115.60
2018-12-04T10:44:59.175Z,101.80
2018-12-04T10:47:30.916Z,95.00
2018-12-04T10:50:02.328Z,114.80
2018-12-04T10:52:34.048Z,105.40
2018-12-04T10:55:06.310Z,101.60
2018-12-04T10:57:37.900Z,106.00
2018-12-04T12:35:54.257Z,149.60
2018-12-04T12:38:29.957Z,148.60
2018-12-04T12:41:01.650Z,149.40
2018-12-04T12:43:33.197Z,156.80
2018-12-04T12:46:04.671Z,159.40
2018-12-04T12:48:37.564Z,148.20
2018-12-04T12:51:10.129Z,152.40
2018-12-04T12:53:41.786Z,155.00
2018-12-04T12:56:26.613Z,165.60
2018-12-04T12:59:02.237Z,164.20
2018-12-04T13:01:33.873Z,165.80
2018-12-04T13:10:05.433Z,169.00
2018-12-04T13:12:39.106Z,171.60
2018-12-04T13:15:21.830Z,170.50
2018-12-04T13:18:06.950Z,183.00
2018-12-04T13:20:54.598Z,182.75
2018-12-04T13:23:29.889Z,187.00
2018-12-04T13:26:04.718Z,201.75
2018-12-04T13:28:44.269Z,192.75
2018-12-04T13:31:15.934Z,216.25
2018-12-04T13:33:47.389Z,207.50
2018-12-04T13:36:21.222Z,202.00
2018-12-04T13:38:54.975Z,206.50
2018-12-04T13:41:28.020Z,210.75
2018-12-04T13:44:03.248Z,222.75
2018-12-04T13:46:35.729Z,240.50
2018-12-04T13:49:07.341Z,240.25
2018-12-04T13:51:38.796Z,234.75
2018-12-04T13:54:13.877Z,237.50
2018-12-04T13:56:45.343Z,216.50
2018-12-04T13:59:17.800Z,239.25
2018-12-04T14:01:49.467Z,240.00
2018-12-04T14:04:21.304Z,270.75
2018-12-04T14:06:52.798Z,280.75
2018-12-04T14:09:26.549Z,286.50
2018-12-04T14:12:25.038Z,272.40
2018-12-04T14:14:56.777Z,282.50
2018-12-04T14:17:28.334Z,295.50
2018-12-04T14:20:00.125Z,284.00
2018-12-04T14:22:31.702Z,310.25
2018-12-04T14:25:03.368Z,313.50
2018-12-04T14:27:35.819Z,309.00
2018-12-04T14:30:10.254Z,323.50
2018-12-04T14:32:41.657Z,324.75
2018-12-04T14:35:13.464Z,343.00
2018-12-04T14:37:46.133Z,353.80
2018-12-04T14:40:21.891Z,350.00
2018-12-04T14:42:55.653Z,340.80
2018-12-04T14:45:28.203Z,328.00
2018-12-04T14:48:01.609Z,369.00
2018-12-04T14:50:33.281Z,373.60
2018-12-04T14:53:05.768Z,376.20
2018-12-04T14:55:37.455Z,378.80
2018-12-04T14:58:09.865Z,372.00
2018-12-04T15:00:41.716Z,341.80
2018-12-04T15:03:13.173Z,367.40
2018-12-04T15:05:45.796Z,357.40
2018-12-04T15:08:18.212Z,352.60
2018-12-04T15:10:49.605Z,360.00
2018-12-04T15:13:21.507Z,362.60
2018-12-04T15:15:53.124Z,347.40
2018-12-04T15:18:26.569Z,361.20
2018-12-04T15:20:58.255Z,354.20
2018-12-04T15:23:29.783Z,335.60
2018-12-04T15:26:02.744Z,361.40
2018-12-04T15:28:39.033Z,404.00
2018-12-04T15:31:21.227Z,401.80
2018-12-04T15:33:52.784Z,383.20
2018-12-04T15:36:24.483Z,382.00
2018-12-04T15:38:57.345Z,384.40
2018-12-04T15:41:30.048Z,383.20
2018-12-04T15:44:05.615Z,388.80
2018-12-04T15:46:38.197Z,383.00
2018-12-04T15:49:09.929Z,374.60
2018-12-04T15:51:44.653Z,381.20
2018-12-04T15:54:19.467Z,374.60
2018-12-04T15:56:55.814Z,375.40
2018-12-04T15:59:27.842Z,363.40
2018-12-04T16:02:00.457Z,361.50
2018-12-04T16:04:32.888Z,372.75
2018-12-04T16:07:04.519Z,372.00
2018-12-04T16:09:35.912Z,379.20
2018-12-04T16:12:09.412Z,357.25
2018-12-04T16:14:41.655Z,358.25
2018-12-04T16:17:15.335Z,369.00
2018-12-04T16:19:48.462Z,363.25
2018-12-04T16:22:20.992Z,370.80
2018-12-04T16:24:57.172Z,357.00
2018-12-04T16:27:33.625Z,364.50
2018-12-04T16:30:05.826Z,369.00
2018-12-04T16:32:37.511Z,375.40
2018-12-04T16:35:12.598Z,361.50
2018-12-04T16:37:44.272Z,373.80
2018-12-04T16:40:15.940Z,364.50
2018-12-04T16:42:47.476Z,373.25
2018-12-04T16:45:19.557Z,360.25
2018-12-04T16:47:52.164Z,360.00
2018-12-04T16:50:32.433Z,378.75
2018-12-04T16:53:03.965Z,349.00
2018-12-04T16:55:36.505Z,366.75
2018-12-04T16:58:12.784Z,347.75
2018-12-04T17:00:44.318Z,357.50
2018-12-04T17:03:19.829Z,348.50
2018-12-04T17:05:56.154Z,353.50
2018-12-04T17:08:28.633Z,343.00
2018-12-04T17:10:59.963Z,331.25
2018-12-04T17:13:37.578Z,332.00
2018-12-04T17:16:10.648Z,331.00
2018-12-04T17:18:42.192Z,326.75
2018-12-04T17:21:19.304Z,321.50
2018-12-04T17:23:51.011Z,327.75
2018-12-04T17:26:24.722Z,323.75
2018-12-04T17:28:56.254Z,321.75
2018-12-04T17:31:27.666Z,328.25
2018-12-04T17:33:59.251Z,326.75
2018-12-04T17:36:30.877Z,310.75
2018-12-04T17:39:02.424Z,336.75
2018-12-04T17:41:39.943Z,340.00
2018-12-04T17:44:14.659Z,347.50
2018-12-04T17:46:53.924Z,338.75
2018-12-04T17:49:29.324Z,347.50
2018-12-04T17:52:04.785Z,335.75
2018-12-04T17:54:37.542Z,313.50
2018-12-04T17:57:10.672Z,335.00
2018-12-04T17:59:44.895Z,324.25
2018-12-04T18:02:18.701Z,327.25
2018-12-04T18:04:57.505Z,302.75
2018-12-04T18:07:43.081Z,324.25
2018-12-04T18:10:20.642Z,323.00
2018-12-04T18:12:57.011Z,309.50
2018-12-04T18:15:35.343Z,326.00
2018-12-04T18:18:14.002Z,313.75
2018-12-04T18:20:58.518Z,314.00
2018-12-04T18:23:47.560Z,333.75
2018-12-04T18:26:20.626Z,323.25
2018-12-04T18:28:56.754Z,328.00
2018-12-04T18:31:33.798Z,335.50
2018-12-04T18:34:09.465Z,315.00
2018-12-04T18:36:52.348Z,329.75
2018-12-04T18:39:29.135Z,313.75
2018-12-04T18:42:01.637Z,331.25
2018-12-04T18:44:45.064Z,317.50
2018-12-04T18:47:18.718Z,318.25
2018-12-04T18:49:54.105Z,321.00
2018-12-04T18:52:34.639Z,312.25
2018-12-04T18:55:07.794Z,314.50
2018-12-04T18:57:45.996Z,315.25
2018-12-04T19:00:22.578Z,317.50
2018-12-04T19:06:04.824Z,303.25
2018-12-04T19:08:43.089Z,321.50
2018-12-04T19:11:16.732Z,330.00
2018-12-04T19:16:51.736Z,334.50
2018-12-04T19:22:27.673Z,353.25
2018-12-04T19:25:02.763Z,324.75
2018-12-04T19:27:35.210Z,333.75
2018-12-04T19:30:21.080Z,325.00
2018-12-04T19:32:56.383Z,344.00
2018-12-04T19:35:34.965Z,332.75
2018-12-04T19:38:11.245Z,341.50
2018-12-04T19:40:59.965Z,348.75
2018-12-04T19:43:56.254Z,330.50
2018-12-04T19:46:39.508Z,329.25
2018-12-04T19:49:14.664Z,336.50
2018-12-04T19:51:46.384Z,325.75
2018-12-04T19:54:38.557Z,347.50
2018-12-04T19:57:16.156Z,337.00
2018-12-04T19:59:52.944Z,338.25
2018-12-04T20:02:29.704Z,346.75
2018-12-04T20:05:01.290Z,343.00
2018-12-04T20:07:38.458Z,323.75
2018-12-04T20:10:13.313Z,316.50
2018-12-04T20:12:44.986Z,330.75
2018-12-04T20:15:23.579Z,324.50
2018-12-04T20:17:56.016Z,316.50
2018-12-04T20:20:27.465Z,308.75
2018-12-04T20:23:05.962Z,299.25
2018-12-04T20:25:43.541Z,272.75
2018-12-04T20:28:24.318Z,287.00
2018-12-04T20:30:55.825Z,285.25
2018-12-04T20:33:28.488Z,281.50
2018-12-04T20:36:03.753Z,281.75
2018-12-04T20:38:40.295Z,272.75
2018-12-04T20:41:11.871Z,269.75
2018-12-04T20:43:58.490Z,270.00
2018-12-04T20:46:35.280Z,270.50
2018-12-04T20:49:10.149Z,261.50
2018-12-04T20:51:41.798Z,253.25
2018-12-04T20:54:19.237Z,262.75
2018-12-04T20:56:55.004Z,257.75
2018-12-04T20:59:42.752Z,262.75
2018-12-04T21:02:20.729Z,257.75
2018-12-04T21:05:14.458Z,250.75
2018-12-04T21:07:51.950Z,255.25
2018-12-04T21:10:29.830Z,243.50
2018-12-04T21:13:01.156Z,251.50
2018-12-04T21:15:32.874Z,234.25
2018-12-04T21:18:16.135Z,244.50
2018-12-04T21:21:04.449Z,260.00
2018-12-04T21:23:39.336Z,255.50
2018-12-04T21:26:15.937Z,266.75
2018-12-04T21:28:55.570Z,246.75
2018-12-04T21:31:39.932Z,256.00
2018-12-04T21:34:25.715Z,246.50
2018-12-04T21:37:02.077Z,248.00
2018-12-04T21:39:36.217Z,243.75
2018-12-04T21:42:12.920Z,250.75
2018-12-04T21:46:51.344Z,249.00
2018-12-04T21:49:28.539Z,246.50
2018-12-04T21:52:05.877Z,250.00
2018-12-04T21:54:37.515Z,255.25
2018-12-04T21:57:16.187Z,233.50
2018-12-04T21:59:51.982Z,226.00
2018-12-04T22:02:23.521Z,240.50
2018-12-04T22:04:55.297Z,239.50
2018-12-04T22:07:26.940Z,243.75
2018-12-04T22:10:05.808Z,240.25
2018-12-04T22:12:37.044Z,228.50
2018-12-04T22:15:09.537Z,230.25
2018-12-04T22:17:40.934Z,240.25
2018-12-04T22:20:14.088Z,231.75
2018-12-04T22:25:48.323Z,243.75
2018-12-04T22:31:19.979Z,229.00
2018-12-04T22:33:56.513Z,229.00
2018-12-04T22:36:28.119Z,229.00
2018-12-04T22:39:09.437Z,235.50
2018-12-04T22:41:42.377Z,227.50
2018-12-04T22:44:13.735Z,229.50
2018-12-04T22:46:49.023Z,226.75
2018-12-04T22:49:26.369Z,221.00
2018-12-04T22:51:57.959Z,229.00
2018-12-04T22:54:32.681Z,220.00
2018-12-04T22:57:09.117Z,211.50
2018-12-04T23:00:00.913Z,220.75
2018-12-04T23:02:41.908Z,224.50
2018-12-04T23:05:31.493Z,210.75
2018-12-04T23:08:06.497Z,227.00
2018-12-04T23:13:36.994Z,219.50
2018-12-04T23:16:12.365Z,217.25
2018-12-04T23:18:49.062Z,216.50
2018-12-04T23:21:25.224Z,210.00
2018-12-04T23:23:57.080Z,207.50
2018-12-04T23:26:33.206Z,225.25
2018-12-04T23:32:10.545Z,233.00
2018-12-04T23:34:51.644Z,214.00
2018-12-04T23:37:27.197Z,217.75
2018-12-04T23:40:07.519Z,218.00
2018-12-04T23:45:37.734Z,218.00
2018-12-04T23:48:09.698Z,217.50
2018-12-04T23:50:41.563Z,220.50
2018-12-04T23:53:15.722Z,212.75
2018-12-04T23:55:54.454Z,221.00
2018-12-04T23:58:25.928Z,218.50
